Time;durP1;ratioP1;P1;durP2;ratioP2;P2;SDS_P1;SDS_P2;PMS_P1;PMS_P2;Temp;Humidity;BMP_temperature;BMP_pressure;BME280_temperature;BME280_humidity;BME280_pressure;Samples;Min_cycle;Max_cycle;Signal;HPM_P1;HPM_P2
2022/11/16 00:00:34;;;;;;;120.33;49.23;;;;;;;-141.97;92.42;47811.25;5009830;28;20262;-89
2022/11/16 00:03:03;;;;;;;112.20;46.40;;;;;;;-141.97;92.16;47676.69;5017650;28;20226;-89
2022/11/16 00:05:29;;;;;;;111.10;45.20;;;;;;;-141.97;92.04;47780.47;5017227;28;20636;-89
2022/11/16 00:07:56;;;;;;;109.30;43.47;;;;;;;-141.97;91.82;47759.34;5021138;28;20433;-90
2022/11/16 00:10:21;;;;;;;108.13;44.43;;;;;;;-141.97;93.28;47707.44;5017713;28;20203;-92
2022/11/16 00:12:47;;;;;;;118.37;44.83;;;;;;;-141.97;94.30;47711.28;5020218;28;20410;-89
2022/11/16 00:15:12;;;;;;;118.63;46.27;;;;;;;-141.97;95.76;47742.03;5018227;28;20179;-90
2022/11/16 00:17:38;;;;;;;118.97;46.53;;;;;;;-141.97;95.87;47726.66;5002264;28;20189;-90
2022/11/16 00:20:04;;;;;;;117.27;45.47;;;;;;;-141.97;95.94;47734.34;5006774;28;20190;-89
2022/11/16 00:22:29;;;;;;;125.10;47.70;;;;;;;-141.97;96.08;47822.78;5019493;28;20171;-90
2022/11/16 00:24:54;;;;;;;131.27;49.10;;;;;;;-141.97;96.38;47805.47;4986292;28;20858;-89
2022/11/16 00:27:20;;;;;;;122.47;48.57;;;;;;;-141.97;96.28;47770.88;4983858;28;20167;-90
2022/11/16 00:29:45;;;;;;;125.40;49.10;;;;;;;-141.97;96.47;47707.44;5004445;28;20171;-89
2022/11/16 00:32:11;;;;;;;129.43;49.73;;;;;;;-141.97;96.63;47884.28;4984682;28;20203;-89
2022/11/16 00:34:36;;;;;;;126.03;48.40;;;;;;;-141.97;96.30;47799.72;4988484;28;20686;-90
2022/11/16 00:37:02;;;;;;;130.53;49.50;;;;;;;-141.97;96.71;47715.13;4987111;28;20168;-89
2022/11/16 00:39:27;;;;;;;129.87;50.50;;;;;;;-141.97;96.19;47849.69;5004907;28;20174;-90
2022/11/16 00:41:52;;;;;;;137.43;53.33;;;;;;;-141.97;95.88;47799.72;5004486;28;20552;-89
2022/11/16 00:44:18;;;;;;;132.60;52.03;;;;;;;-141.97;95.48;47809.31;5011515;28;20174;-90
2022/11/16 00:46:43;;;;;;;131.63;53.40;;;;;;;-141.97;95.22;47718.97;5010444;28;20195;-90
2022/11/16 00:49:09;;;;;;;120.63;49.27;;;;;;;-141.97;95.66;47815.09;5006065;28;20210;-90
2022/11/16 00:51:36;;;;;;;124.00;49.77;;;;;;;-141.97;95.70;47734.34;5009108;28;20181;-89
2022/11/16 00:54:02;;;;;;;129.30;48.90;;;;;;;-141.97;95.28;47767.03;4998066;28;20178;-89
2022/11/16 00:56:27;;;;;;;113.77;46.80;;;;;;;-141.97;94.78;47772.78;5009096;28;20414;-88
2022/11/16 00:58:52;;;;;;;117.30;47.50;;;;;;;-141.97;95.32;47824.69;4988215;28;20483;-89
2022/11/16 01:01:18;;;;;;;119.10;47.47;;;;;;;-141.97;95.70;47765.09;4988444;28;20607;-89
2022/11/16 01:03:44;;;;;;;113.87;46.57;;;;;;;-141.97;95.13;47776.63;5004449;28;20190;-89
2022/11/16 01:06:13;;;;;;;119.87;46.87;;;;;;;-141.97;95.48;47836.22;5004242;28;20174;-89
2022/11/16 01:08:39;;;;;;;115.50;46.20;;;;;;;-141.97;95.79;47845.84;5005055;28;20501;-90
2022/11/16 01:13:50;;;;;;;116.70;46.47;;;;;;;-141.97;94.89;47863.13;5003538;28;20416;-90
2022/11/16 01:16:17;;;;;;;124.17;48.03;;;;;;;-141.97;95.87;47838.16;5005163;28;20411;-90
2022/11/16 01:18:47;;;;;;;125.60;47.70;;;;;;;-141.97;96.22;47818.94;5005683;28;20217;-89
2022/11/16 01:21:12;;;;;;;114.10;46.57;;;;;;;-141.97;96.42;47732.44;5005072;28;20515;-90
2022/11/16 01:23:38;;;;;;;113.70;44.83;;;;;;;-141.97;96.17;47753.56;5003772;28;20418;-90
2022/11/16 01:26:03;;;;;;;113.53;44.50;;;;;;;-141.97;96.08;47830.47;5003718;28;20206;-90
2022/11/16 01:28:30;;;;;;;111.93;44.53;;;;;;;-141.97;97.03;47768.94;4990515;28;20642;-88
2022/11/16 01:30:55;;;;;;;113.57;44.77;;;;;;;-141.97;96.78;47795.88;5003792;28;20171;-89
2022/11/16 01:33:21;;;;;;;110.90;44.30;;;;;;;-141.97;96.83;47884.28;5003763;28;20413;-90
2022/11/16 01:35:47;;;;;;;107.93;44.00;;;;;;;-141.97;97.39;47763.19;5005396;28;20182;-89
2022/11/16 01:38:12;;;;;;;111.33;42.07;;;;;;;-141.97;97.79;47699.75;5006592;28;20232;-90
2022/11/16 01:40:38;;;;;;;115.70;45.00;;;;;;;-141.97;98.03;47801.63;5003673;28;20201;-90
2022/11/16 01:43:10;;;;;;;104.80;42.10;;;;;;;-141.97;98.75;47743.97;5005894;28;20652;-89
2022/11/16 01:45:42;;;;;;;106.40;42.80;;;;;;;-141.97;98.80;47834.31;5003793;28;20185;-89
2022/11/16 01:48:18;;;;;;;104.23;39.90;;;;;;;-141.97;98.41;47907.34;4990452;28;20458;-90
2022/11/16 01:50:45;;;;;;;109.03;42.90;;;;;;;-141.97;98.37;47786.25;4985300;28;20456;-88
2022/11/16 01:53:12;;;;;;;103.67;41.83;;;;;;;-141.97;98.82;47918.88;4995961;28;20433;-89
2022/11/16 01:55:39;;;;;;;102.60;40.77;;;;;;;-141.97;99.87;47801.63;5003170;28;20911;-90
2022/11/16 01:58:06;;;;;;;115.77;43.90;;;;;;;-141.97;100.00;47747.81;4991224;28;20525;-89
2022/11/16 02:00:32;;;;;;;116.93;43.47;;;;;;;-141.97;100.00;47709.38;4989850;28;20462;-89
2022/11/16 02:02:57;;;;;;;122.23;44.43;;;;;;;-141.97;100.00;47765.09;5017601;28;20410;-89
2022/11/16 02:05:34;;;;;;;117.63;44.47;;;;;;;-141.97;100.00;47711.28;5028261;28;20442;-89
2022/11/16 02:11:32;;;;;;;116.77;44.37;;;;;;;-141.97;100.00;47815.09;5006199;28;20827;-89
2022/11/16 02:14:33;;;;;;;125.03;45.67;;;;;;;-141.97;100.00;47790.09;4987719;28;20424;-90
2022/11/16 02:17:20;;;;;;;125.80;46.27;;;;;;;-141.97;100.00;47765.09;4930270;29;20527;-89
2022/11/16 02:20:08;;;;;;;124.13;45.10;;;;;;;-141.97;100.00;47786.25;4927798;29;20454;-89
2022/11/16 02:22:51;;;;;;;113.57;45.00;;;;;;;-141.97;100.00;47868.91;4930237;29;20953;-89
2022/11/16 02:25:23;;;;;;;121.30;45.40;;;;;;;-141.97;100.00;47815.09;4933090;29;20498;-90
2022/11/16 02:28:12;;;;;;;121.03;43.87;;;;;;;-141.97;100.00;47824.69;4929413;29;20505;-90
2022/11/16 02:30:43;;;;;;;115.90;45.27;;;;;;;-141.97;100.00;47795.88;4928682;29;20435;-89
2022/11/16 02:33:15;;;;;;;131.57;47.60;;;;;;;-141.97;100.00;47717.06;4925377;29;20992;-90
2022/11/16 02:35:57;;;;;;;134.47;47.23;;;;;;;-141.97;100.00;47797.78;4940033;29;20444;-90
2022/11/16 02:38:27;;;;;;;128.37;47.70;;;;;;;-141.97;100.00;47830.47;4924904;29;20430;-90
2022/11/16 02:40:59;;;;;;;118.07;46.83;;;;;;;-141.97;100.00;47865.06;4926724;29;20855;-89
2022/11/16 02:43:33;;;;;;;126.53;47.90;;;;;;;-141.97;100.00;47830.47;4931303;29;20436;-89
2022/11/16 02:46:04;;;;;;;126.07;48.77;;;;;;;-141.97;100.00;47788.19;4938648;29;20438;-89
2022/11/16 02:48:34;;;;;;;122.57;47.57;;;;;;;-141.97;99.03;47778.56;4935188;29;20477;-90
2022/11/16 02:51:02;;;;;;;119.73;49.30;;;;;;;-141.97;98.49;47828.53;4931826;29;20413;-90
2022/11/16 02:53:31;;;;;;;117.07;46.27;;;;;;;-141.97;98.31;47765.09;4971876;28;20425;-90
2022/11/16 02:55:58;;;;;;;132.20;50.13;;;;;;;-141.97;97.56;47815.09;5016607;28;20419;-89
2022/11/16 02:58:26;;;;;;;121.60;49.97;;;;;;;-141.97;97.21;47784.34;4991398;28;20417;-91
2022/11/16 03:00:56;;;;;;;187.47;69.07;;;;;;;-141.97;96.77;47851.59;5020342;28;20465;-88
2022/11/16 03:03:52;;;;;;;124.50;51.63;;;;;;;-141.97;96.19;47824.69;5000657;28;20505;-89
2022/11/16 03:06:28;;;;;;;131.27;50.33;;;;;;;-141.97;95.59;47786.25;5007873;28;20422;-90
2022/11/16 03:09:04;;;;;;;128.10;50.30;;;;;;;-141.97;95.74;47784.34;4985368;28;20926;-90
2022/11/16 03:14:24;;;;;;;171.50;62.63;;;;;;;-141.97;95.15;47817.00;5004834;28;20429;-89
2022/11/16 03:16:55;;;;;;;142.87;54.00;;;;;;;-141.97;95.13;47824.69;5012014;28;20418;-90
2022/11/16 03:19:40;;;;;;;120.57;47.27;;;;;;;-141.97;94.89;47784.34;5014438;28;20413;-90
2022/11/16 03:22:37;;;;;;;103.93;41.70;;;;;;;-141.97;94.30;47845.84;5000647;28;20430;-89
2022/11/16 03:25:03;;;;;;;109.07;44.03;;;;;;;-141.97;93.93;47822.78;4996561;28;20429;-90
2022/11/16 03:27:53;;;;;;;108.93;43.50;;;;;;;-141.97;94.12;47776.63;5013890;28;20418;-89
2022/11/16 03:30:21;;;;;;;100.67;42.10;;;;;;;-141.97;93.81;47911.19;5012877;28;20441;-90
2022/11/16 03:33:00;;;;;;;101.03;41.70;;;;;;;-141.97;93.68;47811.25;5014047;28;20425;-90
2022/11/16 03:35:40;;;;;;;95.93;41.57;;;;;;;-141.97;93.40;47824.69;5013983;28;20467;-90
2022/11/16 03:38:07;;;;;;;99.30;40.73;;;;;;;-141.97;93.79;47797.78;5013368;28;20995;-90
2022/11/16 03:40:36;;;;;;;101.97;41.90;;;;;;;-141.97;93.96;47720.91;4996779;28;20480;-90
2022/11/16 03:43:03;;;;;;;152.47;58.63;;;;;;;-141.97;94.09;47820.84;5013984;28;20406;-90
2022/11/16 03:45:30;;;;;;;122.80;48.67;;;;;;;-141.97;94.70;47822.78;5012017;28;20440;-90
2022/11/16 03:47:55;;;;;;;145.00;54.03;;;;;;;-141.97;97.05;47857.38;4993005;28;20481;-89
2022/11/16 03:50:21;;;;;;;125.27;48.93;;;;;;;-141.97;97.08;47734.34;4995143;28;20414;-90
2022/11/16 03:52:46;;;;;;;134.83;52.37;;;;;;;-141.97;97.08;47703.59;5017223;28;20175;-89
2022/11/16 03:55:12;;;;;;;140.07;54.30;;;;;;;-141.97;96.32;47903.50;5024502;28;20189;-89
2022/11/16 03:57:37;;;;;;;134.17;52.63;;;;;;;-141.97;96.38;47880.44;5023975;28;20180;-90
2022/11/16 04:00:05;;;;;;;126.90;44.57;;;;;;;-141.97;96.28;47707.44;5006211;28;20616;-89
2022/11/16 04:02:30;;;;;;;121.67;48.30;;;;;;;-141.97;96.58;47732.44;5020509;28;20220;-90
2022/11/16 04:24:26;;;;;;;105.07;40.60;;;;;;;-141.97;95.45;47853.53;5000600;28;20429;-91
2022/11/16 04:29:39;;;;;;;101.87;41.00;;;;;;;-141.97;95.75;47799.72;5003852;28;20398;-89
2022/11/16 04:37:49;;;;;;;111.07;43.00;;;;;;;-141.97;95.34;47830.47;4997778;28;20449;-89
2022/11/16 04:40:15;;;;;;;116.40;44.00;;;;;;;-141.97;95.37;47828.53;5014120;28;20465;-89
2022/11/16 04:42:41;;;;;;;132.03;50.63;;;;;;;-141.97;95.26;47807.41;4975033;28;20474;-90
2022/11/16 04:47:51;;;;;;;143.50;54.43;;;;;;;-141.97;95.89;47772.78;5007534;28;20253;-90
2022/11/16 04:50:18;;;;;;;141.87;54.67;;;;;;;-141.97;95.54;47776.63;5019294;28;20445;-90
2022/11/16 04:52:43;;;;;;;174.87;70.37;;;;;;;-141.97;95.08;47770.88;5013378;28;20179;-89
2022/11/16 04:55:10;;;;;;;330.40;110.40;;;;;;;-141.97;94.78;47793.94;4995139;28;20994;-91
2022/11/16 04:57:35;;;;;;;222.87;88.10;;;;;;;-141.97;94.50;47826.63;5012864;28;20174;-90
2022/11/16 05:00:01;;;;;;;250.27;101.47;;;;;;;-141.97;94.52;47826.63;5012552;28;20983;-89
2022/11/16 05:02:27;;;;;;;188.27;71.07;;;;;;;-141.97;94.65;47870.81;5011557;28;20194;-89
2022/11/16 05:04:52;;;;;;;205.43;79.47;;;;;;;-141.97;94.59;47803.56;5013047;28;20983;-90
2022/11/16 05:07:17;;;;;;;354.40;140.47;;;;;;;-141.97;94.81;47753.56;5024803;28;20175;-89
2022/11/16 05:09:45;;;;;;;401.83;181.53;;;;;;;-141.97;93.84;47826.63;5013273;28;20675;-90
2022/11/16 05:12:19;;;;;;;337.20;145.77;;;;;;;-141.97;94.02;47751.66;4997697;28;20190;-90
2022/11/16 05:14:45;;;;;;;257.33;116.00;;;;;;;-141.97;94.15;47749.72;5012587;28;20468;-89
2022/11/16 05:17:11;;;;;;;165.17;67.57;;;;;;;-141.97;93.66;47838.16;5013470;28;20485;-89
2022/11/16 05:22:21;;;;;;;252.60;102.17;;;;;;;-141.97;94.00;47866.97;5014035;28;20423;-89
2022/11/16 05:24:46;;;;;;;258.03;104.17;;;;;;;-141.97;94.08;47745.88;5012699;28;20838;-88
2022/11/16 05:27:14;;;;;;;250.30;102.80;;;;;;;-141.97;94.29;47780.47;4995975;28;20185;-89
2022/11/16 05:29:40;;;;;;;349.23;144.83;;;;;;;-141.97;94.21;47826.63;5011735;28;20687;-89
2022/11/16 05:32:07;;;;;;;375.87;158.23;;;;;;;-141.97;94.00;47832.38;4995750;28;20449;-89
2022/11/16 05:34:33;;;;;;;298.73;109.70;;;;;;;-141.97;94.11;47749.72;5011049;28;20186;-89
2022/11/16 05:36:58;;;;;;;183.93;67.50;;;;;;;-141.97;94.07;47818.94;4993860;28;20476;-89
2022/11/16 05:39:24;;;;;;;133.90;54.53;;;;;;;-141.97;94.08;47811.25;4994693;28;20190;-89
2022/11/16 05:41:50;;;;;;;125.77;48.63;;;;;;;-141.97;94.57;47818.94;4997031;28;20297;-88
2022/11/16 05:44:16;;;;;;;105.13;42.10;;;;;;;-141.97;94.23;47776.63;4980325;28;20698;-89
2022/11/16 05:46:42;;;;;;;112.13;44.23;;;;;;;-141.97;94.54;47795.88;5007148;28;20448;-89
2022/11/16 05:49:08;;;;;;;101.47;41.60;;;;;;;-141.97;94.51;47826.63;5013740;28;20659;-88
2022/11/16 05:51:35;;;;;;;101.67;39.90;;;;;;;-141.97;93.63;47815.09;5015007;28;20425;-89
2022/11/16 05:54:01;;;;;;;101.00;40.43;;;;;;;-141.97;93.70;47784.34;4998177;28;20422;-88
2022/11/16 05:56:27;;;;;;;99.67;40.50;;;;;;;-141.97;93.37;47793.94;5014644;28;20440;-89
2022/11/16 05:58:52;;;;;;;108.23;39.13;;;;;;;-141.97;93.77;47799.72;4997765;28;20835;-89
2022/11/16 06:01:18;;;;;;;96.30;39.37;;;;;;;-141.97;93.82;47782.41;5014760;28;20233;-89
2022/11/16 06:03:43;;;;;;;98.97;38.90;;;;;;;-141.97;93.18;47884.28;4998672;28;20374;-90
2022/11/16 06:06:09;;;;;;;95.47;39.50;;;;;;;-141.97;93.58;47763.19;5000169;28;20179;-91
2022/11/16 06:08:35;;;;;;;97.57;40.23;;;;;;;-141.97;93.70;47818.94;4995357;28;20250;-90
2022/11/16 06:11:05;;;;;;;98.20;39.90;;;;;;;-141.97;93.66;47784.34;4997597;28;20170;-90
2022/11/16 06:13:31;;;;;;;102.07;41.10;;;;;;;-141.97;92.91;47776.63;5017780;28;20432;-89
2022/11/16 06:15:57;;;;;;;105.57;41.67;;;;;;;-141.97;92.28;47780.47;5003398;28;20492;-90
2022/11/16 06:18:23;;;;;;;126.80;52.57;;;;;;;-141.97;92.65;47757.41;5014954;28;20203;-90
2022/11/16 06:20:48;;;;;;;147.43;62.93;;;;;;;-141.97;92.61;47784.34;4977354;28;20215;-89
2022/11/16 06:23:14;;;;;;;232.07;101.97;;;;;;;-141.97;91.69;47738.19;4995240;28;20187;-90
2022/11/16 06:25:39;;;;;;;150.30;68.83;;;;;;;-141.97;90.73;47776.63;4981278;28;20175;-90
2022/11/16 06:28:06;;;;;;;182.37;78.93;;;;;;;-141.97;89.90;47845.84;4996549;28;20190;-89
2022/11/16 06:30:31;;;;;;;171.20;75.17;;;;;;;-141.97;89.51;47761.25;4996366;28;20181;-90
2022/11/16 06:32:57;;;;;;;269.27;109.83;;;;;;;-141.97;88.49;47761.25;4996594;28;20429;-90
2022/11/16 06:35:22;;;;;;;220.63;93.80;;;;;;;-141.97;87.09;47830.47;4996930;28;20181;-88
2022/11/16 06:37:48;;;;;;;256.80;108.33;;;;;;;-141.97;86.98;47784.34;5016096;28;20233;-90
2022/11/16 06:40:13;;;;;;;207.90;83.87;;;;;;;-141.97;86.79;47763.19;5014152;28;20197;-90
2022/11/16 06:42:39;;;;;;;174.00;67.17;;;;;;;-141.97;85.91;47830.47;5013000;28;20179;-90
2022/11/16 06:45:04;;;;;;;141.17;52.80;;;;;;;-141.97;86.65;47772.78;5012792;28;20174;-91
2022/11/16 06:47:30;;;;;;;159.57;61.27;;;;;;;-141.97;86.78;47753.56;5014538;28;20278;-89
2022/11/16 06:49:55;;;;;;;182.20;77.23;;;;;;;-141.97;86.31;47842.00;5012696;28;20186;-89
2022/11/16 06:52:21;;;;;;;117.00;49.27;;;;;;;-141.97;85.61;47782.41;5018708;28;20170;-88
2022/11/16 06:54:46;;;;;;;122.47;49.27;;;;;;;-141.97;86.14;47743.97;4998610;28;20174;-89
2022/11/16 06:57:12;;;;;;;137.67;57.07;;;;;;;-141.97;86.92;47720.91;5015369;28;20225;-89
2022/11/16 06:59:37;;;;;;;128.70;47.50;;;;;;;-141.97;87.38;47801.63;5028416;28;20158;-90
2022/11/16 07:02:03;;;;;;;112.90;45.13;;;;;;;-141.97;89.26;47851.59;5017218;28;20233;-90
2022/11/16 07:04:30;;;;;;;177.67;69.33;;;;;;;-141.97;88.19;47845.84;5006566;28;20210;-90
2022/11/16 07:06:55;;;;;;;164.57;57.73;;;;;;;-141.97;87.62;47695.91;4999034;28;20206;-89
2022/11/16 07:09:21;;;;;;;138.03;53.33;;;;;;;-141.97;87.09;47809.31;5015331;28;20476;-89
2022/11/16 07:11:46;;;;;;;125.73;48.97;;;;;;;-141.97;86.78;47730.50;5027259;28;20185;-88
2022/11/16 07:14:12;;;;;;;123.60;48.57;;;;;;;-141.97;87.42;47849.69;5021309;28;20178;-88
2022/11/16 07:16:37;;;;;;;96.73;37.90;;;;;;;-141.97;87.18;47891.97;4995787;28;20182;-89
2022/11/16 07:19:03;;;;;;;109.00;42.47;;;;;;;-141.97;87.04;47807.41;5012430;28;20663;-89
2022/11/16 07:21:29;;;;;;;98.37;38.30;;;;;;;-141.97;86.64;47842.00;5013306;28;20653;-89
2022/11/16 07:23:54;;;;;;;121.63;46.50;;;;;;;-141.97;87.64;47742.03;5012581;28;20252;-90
2022/11/16 07:26:20;;;;;;;112.43;44.77;;;;;;;-141.97;87.85;47782.41;5013315;28;20821;-90
2022/11/16 07:28:45;;;;;;;99.23;39.70;;;;;;;-141.97;88.08;47899.66;5011959;28;20210;-90
2022/11/16 07:31:12;;;;;;;93.60;36.47;;;;;;;-141.97;90.22;47780.47;5012528;28;20178;-88
2022/11/16 07:33:38;;;;;;;83.60;34.13;;;;;;;-141.97;90.39;47799.72;5012349;28;20183;-90
2022/11/16 07:36:05;;;;;;;99.60;35.57;;;;;;;-141.97;91.02;47897.75;5000113;28;20426;-89
2022/11/16 07:38:31;;;;;;;97.17;35.33;;;;;;;-141.97;90.63;47759.34;5012938;28;20202;-85
2022/11/16 07:41:04;;;;;;;96.73;34.60;;;;;;;-141.97;89.35;47788.19;5013966;28;20465;-89
2022/11/16 07:43:31;;;;;;;102.33;40.63;;;;;;;-141.97;87.96;47828.53;5012534;28;20516;-88
2022/11/16 07:46:13;;;;;;;130.80;48.67;;;;;;;-141.97;87.41;47792.03;4995077;28;20504;-89
2022/11/16 07:48:41;;;;;;;106.63;44.20;;;;;;;-141.97;86.10;47857.38;5012650;28;20470;-89
2022/11/16 07:51:09;;;;;;;89.07;35.30;;;;;;;-141.97;83.80;47768.94;4996370;28;20173;-88
2022/11/16 07:53:35;;;;;;;104.83;46.40;;;;;;;-141.97;81.91;47899.66;4995704;28;20177;-90
2022/11/16 07:56:00;;;;;;;97.50;40.57;;;;;;;-141.97;80.77;47845.84;5012091;28;20179;-89
2022/11/16 07:58:28;;;;;;;102.73;43.30;;;;;;;-141.97;79.84;47872.75;5013295;28;20217;-89
2022/11/16 08:00:54;;;;;;;92.63;39.83;;;;;;;-141.97;77.99;47784.34;5013333;28;20230;-89
2022/11/16 08:03:19;;;;;;;85.30;36.87;;;;;;;-141.97;76.98;47749.72;5011768;28;20222;-89
2022/11/16 08:05:45;;;;;;;80.17;36.10;;;;;;;-141.97;75.80;47890.06;5012607;28;20198;-89
2022/11/16 08:08:11;;;;;;;92.03;41.07;;;;;;;-141.97;75.98;47749.72;5013703;28;20699;-89
2022/11/16 08:10:37;;;;;;;86.87;39.70;;;;;;;-141.97;75.39;47718.97;4999424;28;20178;-90
2022/11/16 08:13:03;;;;;;;78.47;36.30;;;;;;;-141.97;74.84;47772.78;5013995;28;20678;-90
2022/11/16 08:15:29;;;;;;;77.50;35.13;;;;;;;-141.97;73.84;47934.25;5011841;28;20562;-89
2022/11/16 08:17:57;;;;;;;83.27;35.33;;;;;;;-141.97;72.56;47684.38;5012934;28;20254;-89
2022/11/16 08:20:22;;;;;;;75.70;32.73;;;;;;;-141.97;72.28;47790.09;4995925;28;20337;-89
2022/11/16 08:22:48;;;;;;;68.10;32.20;;;;;;;-141.97;72.37;47799.72;4996243;28;20194;-90
2022/11/16 08:25:14;;;;;;;74.00;34.20;;;;;;;-141.97;72.06;47776.63;5012594;28;20171;-90
2022/11/16 08:27:40;;;;;;;78.50;31.93;;;;;;;-141.97;71.71;47747.81;4996503;28;20198;-88
2022/11/16 08:30:08;;;;;;;77.07;33.17;;;;;;;-141.97;73.10;47778.56;4998353;28;20601;-88
2022/11/16 08:32:35;;;;;;;79.23;35.20;;;;;;;-141.97;72.85;47865.06;5016096;28;20177;-89
2022/11/16 08:35:00;;;;;;;78.43;34.10;;;;;;;-141.97;73.39;47749.72;4996523;28;20174;-89
2022/11/16 08:37:27;;;;;;;83.43;34.67;;;;;;;-141.97;72.67;47776.63;4997957;28;20166;-90
2022/11/16 08:39:53;;;;;;;69.77;32.20;;;;;;;-141.97;72.09;47861.22;5011056;28;20224;-89
2022/11/16 08:42:18;;;;;;;68.20;32.20;;;;;;;-141.97;71.24;47857.38;5010864;28;20608;-90
2022/11/16 08:44:44;;;;;;;66.57;30.03;;;;;;;-141.97;69.03;47934.25;5012584;28;20171;-89
2022/11/16 08:47:09;;;;;;;55.17;26.37;;;;;;;-141.97;67.30;47749.72;4994611;28;20665;-89
2022/11/16 08:49:35;;;;;;;54.93;27.43;;;;;;;-141.97;66.57;47795.88;5012080;28;20344;-89
2022/11/16 08:52:00;;;;;;;55.50;27.30;;;;;;;-141.97;65.53;47709.38;5018405;28;20183;-88
2022/11/16 08:54:27;;;;;;;60.17;27.80;;;;;;;-141.97;64.24;47790.09;5002812;28;20631;-90
2022/11/16 08:56:53;;;;;;;62.00;28.07;;;;;;;-141.97;64.02;47726.66;4998070;28;20706;-90
2022/11/16 08:59:18;;;;;;;60.03;28.57;;;;;;;-141.97;63.06;47899.66;5016117;28;20202;-90
2022/11/16 09:01:43;;;;;;;53.40;25.77;;;;;;;-141.97;63.42;47882.38;5014430;28;20202;-90
2022/11/16 09:04:09;;;;;;;61.67;28.63;;;;;;;-141.97;62.43;47745.88;5014887;28;20202;-89
2022/11/16 09:06:34;;;;;;;58.97;30.73;;;;;;;-141.97;61.93;47884.28;4998036;28;20163;-90
2022/11/16 09:09:00;;;;;;;59.50;30.23;;;;;;;-141.97;62.09;47897.75;5015537;28;20190;-89
2022/11/16 09:11:25;;;;;;;63.20;31.33;;;;;;;-141.97;62.15;47872.75;5016098;28;20170;-90
2022/11/16 09:13:53;;;;;;;59.97;29.33;;;;;;;-141.97;61.43;47634.41;5021050;28;20570;-90
2022/11/16 09:16:19;;;;;;;54.67;28.10;;;;;;;-141.97;60.41;47765.09;5021585;28;20171;-89
2022/11/16 09:18:46;;;;;;;59.53;28.30;;;;;;;-141.97;59.53;47884.28;5034656;28;20195;-89
2022/11/16 09:21:24;;;;;;;55.53;27.97;;;;;;;-141.97;58.74;47665.16;5017096;28;20344;-90
2022/11/16 09:23:50;;;;;;;61.47;28.50;;;;;;;-141.97;58.07;47745.88;5012228;28;20196;-89
2022/11/16 09:26:20;;;;;;;56.07;29.07;;;;;;;-141.97;58.57;47659.38;5018279;28;20182;-90
2022/11/16 09:28:46;;;;;;;56.60;29.03;;;;;;;-141.97;58.38;47807.41;5029768;28;20177;-90
2022/11/16 09:31:11;;;;;;;65.57;29.07;;;;;;;-141.97;57.91;47765.09;5036180;28;20159;-88
2022/11/16 09:33:37;;;;;;;53.43;28.50;;;;;;;-141.97;57.79;47776.63;5037296;28;20193;-88
2022/11/16 09:36:07;;;;;;;64.13;30.23;;;;;;;-141.97;58.40;47742.03;5010979;28;20178;-89
2022/11/16 09:38:38;;;;;;;59.37;29.50;;;;;;;-141.97;57.76;47578.66;4998466;28;20190;-90
2022/11/16 09:41:15;;;;;;;59.20;29.77;;;;;;;-141.97;58.53;47745.88;5010960;28;20211;-90
2022/11/16 09:44:11;;;;;;;55.20;29.47;;;;;;;-141.97;57.81;47768.94;4997241;28;20187;-90
2022/11/16 09:46:42;;;;;;;57.10;29.17;;;;;;;-141.97;56.62;47732.44;4995993;28;20632;-89
2022/11/16 09:49:34;;;;;;;59.20;28.77;;;;;;;-141.97;55.94;47780.47;4981583;28;20313;-89
2022/11/16 09:52:07;;;;;;;56.03;29.20;;;;;;;-141.97;56.01;47665.16;5008171;28;20576;-88
2022/11/16 09:54:39;;;;;;;51.63;27.13;;;;;;;-141.97;55.58;47757.41;4997502;28;20206;-89
2022/11/16 09:57:08;;;;;;;56.60;28.20;;;;;;;-141.97;55.21;47751.66;5006764;28;20189;-89
2022/11/16 09:59:44;;;;;;;50.33;27.07;;;;;;;-141.97;55.10;47738.19;5005511;28;20183;-90
2022/11/16 10:02:25;;;;;;;51.53;26.43;;;;;;;-141.97;54.28;47747.81;5014531;28;20280;-90
2022/11/16 10:05:00;;;;;;;47.20;25.07;;;;;;;-141.97;53.84;47649.78;5014005;28;20175;-89
2022/11/16 10:07:41;;;;;;;50.77;26.17;;;;;;;-141.97;54.08;47749.72;5011825;28;20178;-89
2022/11/16 10:10:22;;;;;;;44.90;24.90;;;;;;;-141.97;53.50;47659.38;4996419;28;20593;-89
2022/11/16 10:13:13;;;;;;;43.73;24.07;;;;;;;-141.97;53.91;47780.47;5013556;28;20163;-88
2022/11/16 10:15:53;;;;;;;40.90;22.63;;;;;;;-141.97;52.80;47751.66;4953239;29;20295;-89
2022/11/16 10:18:24;;;;;;;38.63;21.73;;;;;;;-141.97;52.98;47726.66;4953432;29;20374;-90
2022/11/16 10:20:53;;;;;;;39.17;21.93;;;;;;;-141.97;52.68;47753.56;4953389;29;20216;-89
2022/11/16 10:23:36;;;;;;;40.53;21.47;;;;;;;-141.97;52.87;47745.88;4953292;29;20227;-88
2022/11/16 10:26:13;;;;;;;38.97;22.13;;;;;;;-141.97;52.95;47707.44;4937280;29;20251;-89
2022/11/16 10:29:09;;;;;;;38.00;22.10;;;;;;;-141.97;52.25;47738.19;4954141;28;20667;-89
2022/11/16 10:31:43;;;;;;;36.40;21.13;;;;;;;-141.97;52.63;47709.38;4972505;28;20203;-89
2022/11/16 10:34:18;;;;;;;37.77;22.00;;;;;;;-141.97;53.22;47768.94;4972803;28;20191;-89
2022/11/16 10:36:44;;;;;;;40.63;21.47;;;;;;;-141.97;53.04;47663.22;4972247;28;20172;-89
2022/11/16 10:39:13;;;;;;;37.30;20.53;;;;;;;-141.97;52.72;47720.91;4968974;28;20199;-89
2022/11/16 10:41:42;;;;;;;39.27;21.37;;;;;;;-141.97;52.41;47695.91;4953646;28;20192;-89
2022/11/16 10:44:27;;;;;;;38.30;21.50;;;;;;;-141.97;52.10;47763.19;4952995;29;20260;-89
2022/11/16 10:47:18;;;;;;;35.13;20.53;;;;;;;-141.97;52.01;47767.03;4953097;29;20566;-89
2022/11/16 10:49:57;;;;;;;37.77;21.67;;;;;;;-141.97;52.44;47740.13;4961491;28;20254;-88
2022/11/16 10:52:24;;;;;;;34.23;20.20;;;;;;;-141.97;51.70;47695.91;4992334;28;20269;-89
2022/11/16 10:54:50;;;;;;;35.47;20.17;;;;;;;-141.97;51.85;47695.91;5005840;28;20171;-89
2022/11/16 10:57:18;;;;;;;36.43;20.47;;;;;;;-141.97;51.17;47632.47;4996929;28;20181;-89
2022/11/16 10:59:49;;;;;;;36.20;21.20;;;;;;;-141.97;50.76;47745.88;5012865;28;20174;-90
2022/11/16 11:02:35;;;;;;;37.10;21.20;;;;;;;-141.97;51.10;47742.03;5012878;28;20178;-88
2022/11/16 11:05:21;;;;;;;36.07;20.27;;;;;;;-141.97;51.25;47843.91;5014313;28;20170;-89
2022/11/16 11:08:02;;;;;;;37.17;20.90;;;;;;;-141.97;51.29;47726.66;5011063;28;20187;-89
2022/11/16 11:10:31;;;;;;;34.47;20.20;;;;;;;-141.97;51.06;47665.16;5013191;28;20159;-89
2022/11/16 11:13:03;;;;;;;38.10;21.47;;;;;;;-141.97;50.67;47720.91;4995607;28;20177;-89
2022/11/16 11:15:28;;;;;;;39.20;22.43;;;;;;;-141.97;49.75;47692.06;5012717;28;20738;-90
2022/11/16 11:18:13;;;;;;;39.60;21.87;;;;;;;-141.97;50.35;47692.06;5012286;28;20189;-89
2022/11/16 11:20:42;;;;;;;35.43;20.43;;;;;;;-141.97;49.52;47699.75;5013094;28;20201;-89
2022/11/16 11:23:17;;;;;;;35.17;20.27;;;;;;;-141.97;48.62;47718.97;5026445;28;20305;-87
2022/11/16 11:25:55;;;;;;;34.50;19.87;;;;;;;-141.97;48.56;47732.44;5021901;28;20174;-89
2022/11/16 11:28:27;;;;;;;39.03;22.80;;;;;;;-141.97;48.59;47703.59;5016514;28;20163;-89
2022/11/16 11:31:06;;;;;;;42.03;24.57;;;;;;;-141.97;48.66;47703.59;5013588;28;20525;-88
2022/11/16 11:33:39;;;;;;;43.87;25.07;;;;;;;-141.97;49.25;47901.59;4995367;28;20618;-88
2022/11/16 11:36:04;;;;;;;46.20;26.83;;;;;;;-141.97;49.26;47730.50;4995019;28;20245;-88
2022/11/16 11:38:30;;;;;;;47.50;26.33;;;;;;;-141.97;49.11;47617.09;4995544;28;20627;-88
2022/11/16 11:40:59;;;;;;;50.93;26.17;;;;;;;-141.97;49.05;47711.28;5011297;28;20641;-89
2022/11/16 11:43:26;;;;;;;46.07;26.33;;;;;;;-141.97;49.44;47742.03;4995667;28;20170;-90
2022/11/16 11:45:55;;;;;;;42.80;25.30;;;;;;;-141.97;49.44;47747.81;5012895;28;20189;-89
2022/11/16 11:48:32;;;;;;;46.53;24.47;;;;;;;-141.97;49.80;47653.63;4994602;28;20230;-89